Terminal Aerodrome Forecast
Issued by NWS

Home | Current Version | Previous Version | Text Only | Print | Product List | Glossary On
Versions: 1 2 3 4 5 6 7 8 9 10 11 12 13 14 15 16 17 18 19 20 21 22 23
084
FTAK31 PAFA 102338
TAFATA
TAF
PATA 102338Z 1100/1124 00000KT P6SM FEW100
     FM111800 08006KT P6SM SCT025 BKN050 OVC100
     FM112200 07005KT P6SM VCSH OVC025=

USA.gov is the U.S. government's official web portal to all federal, state and local government web resources and services.